East End, Arkansas
Current Conditions -  °F | °C
As of 7:53 AM on Thursday 27 Nov 2014 (Local Time) from KLIT Reporting Station
Few Clouds Few Clouds  
Wind Chill: 37°   Ceiling: Unl
Heat Index: 37°   Visibility: 10mi
Dew Point: 26°   Wind: 3mph
Humidity: 65%   Direction: 320°NW
Pressure: 30.51"   Gusts: NA
Location:  34.5559°N, 92.1911°W
Report Text: KLIT 271353Z 32003KT 10SM FEW250 03/M03 A3051 RMK AO2 SLP335 T00281033
Loading
Personal Weather Stations






























Interactive Weather Map New forecast layout! Learn more

10-Day Weather Forecast

Advertisements
Track Severe Weather on mobile